sensor_id;sensor_type;location;lat;lon;timestamp;P1;durP1;ratioP1;P2;durP2;ratioP2
21786;SDS011;11055;50.870;4.316;2023-09-18T00:02:25;8.07;;;5.60;;
21786;SDS011;11055;50.870;4.316;2023-09-18T00:04:52;7.32;;;5.55;;
21786;SDS011;11055;50.870;4.316;2023-09-18T00:07:18;6.18;;;5.13;;
21786;SDS011;11055;50.870;4.316;2023-09-18T00:09:43;8.95;;;5.82;;
21786;SDS011;11055;50.870;4.316;2023-09-18T00:12:09;6.43;;;5.30;;
21786;SDS011;11055;50.870;4.316;2023-09-18T00:14:35;5.63;;;5.07;;
21786;SDS011;11055;50.870;4.316;2023-09-18T00:17:01;10.00;;;5.85;;
21786;SDS011;11055;50.870;4.316;2023-09-18T00:19:28;10.57;;;5.18;;
21786;SDS011;11055;50.870;4.316;2023-09-18T00:21:53;8.43;;;5.60;;
21786;SDS011;11055;50.870;4.316;2023-09-18T00:24:19;8.13;;;5.15;;
21786;SDS011;11055;50.870;4.316;2023-09-18T00:26:45;10.63;;;6.05;;
21786;SDS011;11055;50.870;4.316;2023-09-18T00:29:14;8.75;;;5.80;;
21786;SDS011;11055;50.870;4.316;2023-09-18T00:31:39;7.38;;;5.88;;
21786;SDS011;11055;50.870;4.316;2023-09-18T00:34:05;12.50;;;6.22;;
21786;SDS011;11055;50.870;4.316;2023-09-18T00:36:31;7.85;;;5.68;;
21786;SDS011;11055;50.870;4.316;2023-09-18T00:38:56;9.63;;;5.18;;
21786;SDS011;11055;50.870;4.316;2023-09-18T00:41:22;9.52;;;5.25;;
21786;SDS011;11055;50.870;4.316;2023-09-18T00:43:47;5.88;;;5.20;;
21786;SDS011;11055;50.870;4.316;2023-09-18T00:46:13;8.60;;;5.00;;
21786;SDS011;11055;50.870;4.316;2023-09-18T00:48:39;6.57;;;5.13;;
21786;SDS011;11055;50.870;4.316;2023-09-18T00:51:05;8.32;;;5.13;;
21786;SDS011;11055;50.870;4.316;2023-09-18T00:53:32;8.27;;;5.03;;
21786;SDS011;11055;50.870;4.316;2023-09-18T00:55:58;7.30;;;4.55;;
21786;SDS011;11055;50.870;4.316;2023-09-18T00:58:26;8.00;;;4.85;;
21786;SDS011;11055;50.870;4.316;2023-09-18T01:00:52;7.00;;;4.85;;
21786;SDS011;11055;50.870;4.316;2023-09-18T01:03:18;5.90;;;4.93;;
21786;SDS011;11055;50.870;4.316;2023-09-18T01:05:46;7.47;;;4.68;;
21786;SDS011;11055;50.870;4.316;2023-09-18T01:08:11;8.07;;;4.28;;
21786;SDS011;11055;50.870;4.316;2023-09-18T01:10:41;6.13;;;4.57;;
21786;SDS011;11055;50.870;4.316;2023-09-18T01:13:21;5.88;;;4.95;;
21786;SDS011;11055;50.870;4.316;2023-09-18T01:16:05;6.68;;;4.65;;
21786;SDS011;11055;50.870;4.316;2023-09-18T01:18:38;9.38;;;5.10;;
21786;SDS011;11055;50.870;4.316;2023-09-18T01:21:18;6.60;;;4.55;;
21786;SDS011;11055;50.870;4.316;2023-09-18T01:23:46;6.57;;;4.82;;
21786;SDS011;11055;50.870;4.316;2023-09-18T01:26:12;8.30;;;5.15;;
21786;SDS011;11055;50.870;4.316;2023-09-18T01:28:37;6.10;;;4.88;;
21786;SDS011;11055;50.870;4.316;2023-09-18T01:31:03;6.97;;;5.80;;
21786;SDS011;11055;50.870;4.316;2023-09-18T01:33:29;7.15;;;5.47;;
21786;SDS011;11055;50.870;4.316;2023-09-18T01:35:55;8.77;;;5.93;;
21786;SDS011;11055;50.870;4.316;2023-09-18T01:38:22;6.57;;;5.65;;
21786;SDS011;11055;50.870;4.316;2023-09-18T01:40:49;8.02;;;5.68;;
21786;SDS011;11055;50.870;4.316;2023-09-18T01:43:18;9.13;;;6.25;;
21786;SDS011;11055;50.870;4.316;2023-09-18T01:45:44;10.45;;;5.93;;
21786;SDS011;11055;50.870;4.316;2023-09-18T01:48:10;9.07;;;5.90;;
21786;SDS011;11055;50.870;4.316;2023-09-18T01:50:36;7.13;;;6.20;;
21786;SDS011;11055;50.870;4.316;2023-09-18T01:53:02;9.25;;;5.90;;
21786;SDS011;11055;50.870;4.316;2023-09-18T01:55:28;9.13;;;5.88;;
21786;SDS011;11055;50.870;4.316;2023-09-18T01:57:55;9.20;;;6.07;;
21786;SDS011;11055;50.870;4.316;2023-09-18T02:00:21;8.27;;;5.82;;
21786;SDS011;11055;50.870;4.316;2023-09-18T02:02:46;7.55;;;6.03;;
21786;SDS011;11055;50.870;4.316;2023-09-18T02:05:12;8.88;;;5.93;;
21786;SDS011;11055;50.870;4.316;2023-09-18T02:07:38;9.48;;;6.10;;
21786;SDS011;11055;50.870;4.316;2023-09-18T02:10:03;6.57;;;5.47;;
21786;SDS011;11055;50.870;4.316;2023-09-18T02:12:30;11.40;;;5.88;;
21786;SDS011;11055;50.870;4.316;2023-09-18T02:14:55;7.57;;;5.60;;
21786;SDS011;11055;50.870;4.316;2023-09-18T02:17:30;6.75;;;5.45;;
21786;SDS011;11055;50.870;4.316;2023-09-18T02:19:55;6.72;;;5.93;;
21786;SDS011;11055;50.870;4.316;2023-09-18T02:22:21;5.93;;;5.32;;
21786;SDS011;11055;50.870;4.316;2023-09-18T02:24:47;6.30;;;5.00;;
21786;SDS011;11055;50.870;4.316;2023-09-18T02:27:12;6.70;;;5.93;;
21786;SDS011;11055;50.870;4.316;2023-09-18T02:29:38;7.85;;;5.85;;
21786;SDS011;11055;50.870;4.316;2023-09-18T02:32:04;7.45;;;6.30;;
21786;SDS011;11055;50.870;4.316;2023-09-18T02:34:30;6.18;;;5.15;;
21786;SDS011;11055;50.870;4.316;2023-09-18T02:36:55;8.18;;;5.53;;
21786;SDS011;11055;50.870;4.316;2023-09-18T02:39:21;8.10;;;5.25;;
21786;SDS011;11055;50.870;4.316;2023-09-18T02:41:47;6.72;;;5.30;;
21786;SDS011;11055;50.870;4.316;2023-09-18T02:44:13;8.23;;;5.30;;
21786;SDS011;11055;50.870;4.316;2023-09-18T02:46:39;6.88;;;5.28;;
21786;SDS011;11055;50.870;4.316;2023-09-18T02:49:05;7.10;;;4.53;;
21786;SDS011;11055;50.870;4.316;2023-09-18T02:51:30;5.80;;;4.72;;
21786;SDS011;11055;50.870;4.316;2023-09-18T02:53:59;4.88;;;4.28;;
21786;SDS011;11055;50.870;4.316;2023-09-18T02:56:24;5.68;;;4.22;;
21786;SDS011;11055;50.870;4.316;2023-09-18T02:58:50;4.70;;;4.18;;
21786;SDS011;11055;50.870;4.316;2023-09-18T03:01:16;6.32;;;4.18;;
21786;SDS011;11055;50.870;4.316;2023-09-18T03:03:42;7.63;;;4.45;;
21786;SDS011;11055;50.870;4.316;2023-09-18T03:06:08;4.57;;;4.15;;
21786;SDS011;11055;50.870;4.316;2023-09-18T03:08:33;5.18;;;3.80;;
21786;SDS011;11055;50.870;4.316;2023-09-18T03:11:00;5.68;;;3.97;;
21786;SDS011;11055;50.870;4.316;2023-09-18T03:13:29;4.30;;;3.90;;
21786;SDS011;11055;50.870;4.316;2023-09-18T03:15:55;5.63;;;3.70;;
21786;SDS011;11055;50.870;4.316;2023-09-18T03:18:21;7.35;;;3.90;;
21786;SDS011;11055;50.870;4.316;2023-09-18T03:20:47;4.88;;;3.83;;
21786;SDS011;11055;50.870;4.316;2023-09-18T03:23:13;8.38;;;3.70;;
21786;SDS011;11055;50.870;4.316;2023-09-18T03:25:39;7.05;;;3.13;;
21786;SDS011;11055;50.870;4.316;2023-09-18T03:28:05;3.83;;;3.40;;
21786;SDS011;11055;50.870;4.316;2023-09-18T03:30:30;3.85;;;3.13;;
21786;SDS011;11055;50.870;4.316;2023-09-18T03:32:57;4.47;;;3.30;;
21786;SDS011;11055;50.870;4.316;2023-09-18T03:35:22;3.80;;;2.92;;
21786;SDS011;11055;50.870;4.316;2023-09-18T03:37:52;4.60;;;3.30;;
21786;SDS011;11055;50.870;4.316;2023-09-18T03:40:21;3.92;;;2.78;;
21786;SDS011;11055;50.870;4.316;2023-09-18T03:42:47;4.88;;;2.67;;
21786;SDS011;11055;50.870;4.316;2023-09-18T03:45:14;3.38;;;2.50;;
21786;SDS011;11055;50.870;4.316;2023-09-18T03:47:42;4.47;;;2.53;;
21786;SDS011;11055;50.870;4.316;2023-09-18T03:50:08;4.30;;;2.55;;
21786;SDS011;11055;50.870;4.316;2023-09-18T03:52:34;3.20;;;2.30;;
21786;SDS011;11055;50.870;4.316;2023-09-18T03:55:01;5.40;;;2.97;;
21786;SDS011;11055;50.870;4.316;2023-09-18T03:57:26;4.88;;;2.90;;
21786;SDS011;11055;50.870;4.316;2023-09-18T03:59:52;3.47;;;2.78;;
21786;SDS011;11055;50.870;4.316;2023-09-18T04:02:18;5.55;;;3.00;;
21786;SDS011;11055;50.870;4.316;2023-09-18T04:04:43;5.28;;;3.33;;
21786;SDS011;11055;50.870;4.316;2023-09-18T04:07:09;6.13;;;3.33;;
21786;SDS011;11055;50.870;4.316;2023-09-18T04:09:36;5.75;;;3.45;;
21786;SDS011;11055;50.870;4.316;2023-09-18T04:12:03;4.72;;;3.22;;
21786;SDS011;11055;50.870;4.316;2023-09-18T04:14:32;4.10;;;2.85;;
21786;SDS011;11055;50.870;4.316;2023-09-18T04:16:58;5.10;;;2.95;;
21786;SDS011;11055;50.870;4.316;2023-09-18T04:19:29;5.78;;;2.60;;
21786;SDS011;11055;50.870;4.316;2023-09-18T04:21:55;3.58;;;2.60;;
21786;SDS011;11055;50.870;4.316;2023-09-18T04:24:21;5.63;;;2.35;;
21786;SDS011;11055;50.870;4.316;2023-09-18T04:26:48;4.53;;;2.33;;
21786;SDS011;11055;50.870;4.316;2023-09-18T04:29:17;3.28;;;1.83;;
21786;SDS011;11055;50.870;4.316;2023-09-18T04:31:43;3.95;;;1.90;;
21786;SDS011;11055;50.870;4.316;2023-09-18T04:34:09;3.30;;;2.25;;
21786;SDS011;11055;50.870;4.316;2023-09-18T04:36:35;2.63;;;1.70;;
21786;SDS011;11055;50.870;4.316;2023-09-18T04:39:02;2.65;;;1.75;;
21786;SDS011;11055;50.870;4.316;2023-09-18T04:41:32;3.25;;;1.92;;
21786;SDS011;11055;50.870;4.316;2023-09-18T04:43:58;3.05;;;1.35;;
21786;SDS011;11055;50.870;4.316;2023-09-18T04:46:24;3.20;;;1.80;;
21786;SDS011;11055;50.870;4.316;2023-09-18T04:48:50;4.32;;;1.45;;
21786;SDS011;11055;50.870;4.316;2023-09-18T04:51:16;3.90;;;1.65;;
21786;SDS011;11055;50.870;4.316;2023-09-18T04:53:41;3.42;;;1.60;;
21786;SDS011;11055;50.870;4.316;2023-09-18T04:56:08;2.00;;;1.52;;
21786;SDS011;11055;50.870;4.316;2023-09-18T04:58:35;2.65;;;1.50;;
21786;SDS011;11055;50.870;4.316;2023-09-18T05:01:02;2.83;;;1.15;;
21786;SDS011;11055;50.870;4.316;2023-09-18T05:03:30;4.28;;;1.60;;
21786;SDS011;11055;50.870;4.316;2023-09-18T05:05:59;3.75;;;1.27;;
21786;SDS011;11055;50.870;4.316;2023-09-18T05:08:24;3.47;;;1.42;;
21786;SDS011;11055;50.870;4.316;2023-09-18T05:10:50;3.63;;;1.42;;
21786;SDS011;11055;50.870;4.316;2023-09-18T05:13:16;1.88;;;1.20;;
21786;SDS011;11055;50.870;4.316;2023-09-18T05:15:41;3.60;;;1.48;;
21786;SDS011;11055;50.870;4.316;2023-09-18T05:18:07;3.35;;;1.50;;
21786;SDS011;11055;50.870;4.316;2023-09-18T05:20:33;2.88;;;1.20;;
21786;SDS011;11055;50.870;4.316;2023-09-18T05:22:59;2.58;;;1.40;;
21786;SDS011;11055;50.870;4.316;2023-09-18T05:25:27;3.22;;;1.83;;
21786;SDS011;11055;50.870;4.316;2023-09-18T05:27:57;2.78;;;1.50;;
21786;SDS011;11055;50.870;4.316;2023-09-18T05:30:25;2.17;;;1.85;;
21786;SDS011;11055;50.870;4.316;2023-09-18T05:32:59;4.32;;;1.98;;
21786;SDS011;11055;50.870;4.316;2023-09-18T05:35:50;3.38;;;1.60;;
21786;SDS011;11055;50.870;4.316;2023-09-18T05:38:16;1.65;;;1.55;;
21786;SDS011;11055;50.870;4.316;2023-09-18T05:40:43;3.90;;;1.70;;
21786;SDS011;11055;50.870;4.316;2023-09-18T05:43:10;3.97;;;1.50;;
21786;SDS011;11055;50.870;4.316;2023-09-18T05:45:36;5.05;;;1.70;;
21786;SDS011;11055;50.870;4.316;2023-09-18T05:48:03;4.63;;;1.80;;
21786;SDS011;11055;50.870;4.316;2023-09-18T05:50:29;2.00;;;1.50;;
21786;SDS011;11055;50.870;4.316;2023-09-18T05:52:57;4.45;;;1.92;;
21786;SDS011;11055;50.870;4.316;2023-09-18T05:55:25;6.28;;;1.90;;
21786;SDS011;11055;50.870;4.316;2023-09-18T05:57:53;3.33;;;1.75;;
21786;SDS011;11055;50.870;4.316;2023-09-18T06:00:19;2.47;;;1.70;;
21786;SDS011;11055;50.870;4.316;2023-09-18T06:02:45;4.60;;;1.60;;
21786;SDS011;11055;50.870;4.316;2023-09-18T06:05:11;6.38;;;2.22;;
21786;SDS011;11055;50.870;4.316;2023-09-18T06:07:37;2.70;;;1.60;;
21786;SDS011;11055;50.870;4.316;2023-09-18T06:10:04;3.47;;;1.73;;
21786;SDS011;11055;50.870;4.316;2023-09-18T06:12:30;3.03;;;1.90;;
21786;SDS011;11055;50.870;4.316;2023-09-18T06:14:56;5.65;;;2.45;;
21786;SDS011;11055;50.870;4.316;2023-09-18T06:17:21;5.78;;;1.70;;
21786;SDS011;11055;50.870;4.316;2023-09-18T06:19:48;5.80;;;2.03;;
21786;SDS011;11055;50.870;4.316;2023-09-18T06:22:14;6.28;;;2.35;;
21786;SDS011;11055;50.870;4.316;2023-09-18T06:24:40;3.13;;;1.98;;
21786;SDS011;11055;50.870;4.316;2023-09-18T06:27:06;5.35;;;2.97;;
21786;SDS011;11055;50.870;4.316;2023-09-18T06:29:35;3.13;;;1.70;;
21786;SDS011;11055;50.870;4.316;2023-09-18T06:32:02;4.63;;;2.22;;
21786;SDS011;11055;50.870;4.316;2023-09-18T06:34:28;3.78;;;1.80;;
21786;SDS011;11055;50.870;4.316;2023-09-18T06:36:54;4.57;;;2.05;;
21786;SDS011;11055;50.870;4.316;2023-09-18T06:39:20;4.45;;;1.95;;
21786;SDS011;11055;50.870;4.316;2023-09-18T06:41:47;3.72;;;2.20;;
21786;SDS011;11055;50.870;4.316;2023-09-18T06:44:13;5.38;;;2.10;;
21786;SDS011;11055;50.870;4.316;2023-09-18T06:46:39;4.35;;;2.33;;
21786;SDS011;11055;50.870;4.316;2023-09-18T06:49:05;6.40;;;3.22;;
21786;SDS011;11055;50.870;4.316;2023-09-18T06:51:31;4.53;;;2.40;;
21786;SDS011;11055;50.870;4.316;2023-09-18T06:53:56;4.25;;;2.58;;
21786;SDS011;11055;50.870;4.316;2023-09-18T06:56:25;4.57;;;2.70;;
21786;SDS011;11055;50.870;4.316;2023-09-18T06:58:51;6.82;;;3.33;;
21786;SDS011;11055;50.870;4.316;2023-09-18T07:01:17;3.33;;;2.40;;
21786;SDS011;11055;50.870;4.316;2023-09-18T07:03:44;3.72;;;2.58;;
21786;SDS011;11055;50.870;4.316;2023-09-18T07:06:12;5.05;;;2.60;;
21786;SDS011;11055;50.870;4.316;2023-09-18T07:08:40;4.85;;;2.60;;
21786;SDS011;11055;50.870;4.316;2023-09-18T07:11:05;8.77;;;3.72;;
21786;SDS011;11055;50.870;4.316;2023-09-18T07:13:31;4.85;;;2.85;;
21786;SDS011;11055;50.870;4.316;2023-09-18T07:15:57;7.47;;;4.10;;
21786;SDS011;11055;50.870;4.316;2023-09-18T07:18:22;5.10;;;2.50;;
21786;SDS011;11055;50.870;4.316;2023-09-18T07:20:48;6.10;;;2.75;;
21786;SDS011;11055;50.870;4.316;2023-09-18T07:23:14;6.95;;;2.67;;
21786;SDS011;11055;50.870;4.316;2023-09-18T07:25:39;7.07;;;2.92;;
21786;SDS011;11055;50.870;4.316;2023-09-18T07:28:08;5.05;;;3.00;;
21786;SDS011;11055;50.870;4.316;2023-09-18T07:30:35;5.70;;;2.92;;
21786;SDS011;11055;50.870;4.316;2023-09-18T07:33:02;8.73;;;3.08;;
21786;SDS011;11055;50.870;4.316;2023-09-18T07:35:28;3.90;;;2.65;;
21786;SDS011;11055;50.870;4.316;2023-09-18T07:37:54;6.07;;;2.97;;
21786;SDS011;11055;50.870;4.316;2023-09-18T07:40:20;4.80;;;2.85;;
21786;SDS011;11055;50.870;4.316;2023-09-18T07:42:46;7.22;;;3.03;;
21786;SDS011;11055;50.870;4.316;2023-09-18T07:45:12;5.18;;;3.20;;
21786;SDS011;11055;50.870;4.316;2023-09-18T07:47:38;6.35;;;2.90;;
21786;SDS011;11055;50.870;4.316;2023-09-18T07:50:04;4.32;;;2.85;;
21786;SDS011;11055;50.870;4.316;2023-09-18T07:52:31;8.30;;;3.05;;
21786;SDS011;11055;50.870;4.316;2023-09-18T07:54:57;5.85;;;3.17;;
21786;SDS011;11055;50.870;4.316;2023-09-18T07:57:23;5.05;;;2.70;;
21786;SDS011;11055;50.870;4.316;2023-09-18T07:59:50;8.38;;;2.67;;
21786;SDS011;11055;50.870;4.316;2023-09-18T08:02:16;4.97;;;2.47;;
21786;SDS011;11055;50.870;4.316;2023-09-18T08:04:43;4.38;;;2.70;;
21786;SDS011;11055;50.870;4.316;2023-09-18T08:07:08;7.35;;;3.42;;
21786;SDS011;11055;50.870;4.316;2023-09-18T08:09:34;4.88;;;2.55;;
21786;SDS011;11055;50.870;4.316;2023-09-18T08:12:04;10.38;;;3.10;;
21786;SDS011;11055;50.870;4.316;2023-09-18T08:14:33;9.13;;;3.65;;
21786;SDS011;11055;50.870;4.316;2023-09-18T08:17:02;5.78;;;2.65;;
21786;SDS011;11055;50.870;4.316;2023-09-18T08:19:29;5.25;;;3.20;;
21786;SDS011;11055;50.870;4.316;2023-09-18T08:21:57;4.95;;;3.40;;
21786;SDS011;11055;50.870;4.316;2023-09-18T08:24:24;5.43;;;3.22;;
21786;SDS011;11055;50.870;4.316;2023-09-18T08:26:50;5.43;;;2.88;;
21786;SDS011;11055;50.870;4.316;2023-09-18T08:29:17;7.75;;;3.20;;
21786;SDS011;11055;50.870;4.316;2023-09-18T08:31:43;7.03;;;3.00;;
21786;SDS011;11055;50.870;4.316;2023-09-18T08:34:09;5.78;;;3.25;;
21786;SDS011;11055;50.870;4.316;2023-09-18T08:36:34;11.90;;;3.53;;
21786;SDS011;11055;50.870;4.316;2023-09-18T08:39:00;6.55;;;3.47;;
21786;SDS011;11055;50.870;4.316;2023-09-18T08:41:27;8.00;;;3.55;;
21786;SDS011;11055;50.870;4.316;2023-09-18T08:43:56;8.60;;;4.13;;
21786;SDS011;11055;50.870;4.316;2023-09-18T08:46:25;7.25;;;2.83;;
21786;SDS011;11055;50.870;4.316;2023-09-18T08:48:51;4.90;;;2.90;;
21786;SDS011;11055;50.870;4.316;2023-09-18T08:51:19;5.85;;;2.70;;
21786;SDS011;11055;50.870;4.316;2023-09-18T08:53:46;7.00;;;3.17;;
21786;SDS011;11055;50.870;4.316;2023-09-18T08:56:12;8.13;;;2.97;;
21786;SDS011;11055;50.870;4.316;2023-09-18T08:58:39;7.38;;;3.05;;
21786;SDS011;11055;50.870;4.316;2023-09-18T09:01:11;3.80;;;2.63;;
21786;SDS011;11055;50.870;4.316;2023-09-18T09:03:37;6.18;;;3.05;;
21786;SDS011;11055;50.870;4.316;2023-09-18T09:06:04;6.05;;;3.03;;
21786;SDS011;11055;50.870;4.316;2023-09-18T09:08:33;5.18;;;2.58;;
21786;SDS011;11055;50.870;4.316;2023-09-18T09:10:59;8.60;;;4.68;;
21786;SDS011;11055;50.870;4.316;2023-09-18T09:13:25;5.65;;;2.70;;
21786;SDS011;11055;50.870;4.316;2023-09-18T09:15:52;8.27;;;3.20;;
21786;SDS011;11055;50.870;4.316;2023-09-18T09:18:20;7.63;;;3.20;;
21786;SDS011;11055;50.870;4.316;2023-09-18T09:20:54;7.30;;;3.60;;
21786;SDS011;11055;50.870;4.316;2023-09-18T09:23:25;6.28;;;3.00;;
21786;SDS011;11055;50.870;4.316;2023-09-18T09:25:51;5.25;;;2.53;;
21786;SDS011;11055;50.870;4.316;2023-09-18T09:28:26;4.90;;;3.40;;
21786;SDS011;11055;50.870;4.316;2023-09-18T09:31:00;7.07;;;3.45;;
21786;SDS011;11055;50.870;4.316;2023-09-18T09:33:30;8.27;;;3.55;;
21786;SDS011;11055;50.870;4.316;2023-09-18T09:35:56;6.60;;;3.53;;
21786;SDS011;11055;50.870;4.316;2023-09-18T09:38:29;8.25;;;3.22;;
21786;SDS011;11055;50.870;4.316;2023-09-18T09:41:02;7.88;;;3.13;;
21786;SDS011;11055;50.870;4.316;2023-09-18T09:43:32;10.50;;;3.60;;
21786;SDS011;11055;50.870;4.316;2023-09-18T09:46:01;8.10;;;3.95;;
21786;SDS011;11055;50.870;4.316;2023-09-18T09:48:28;5.85;;;3.35;;
21786;SDS011;11055;50.870;4.316;2023-09-18T09:50:58;7.68;;;3.83;;
21786;SDS011;11055;50.870;4.316;2023-09-18T09:56:15;6.47;;;3.55;;
21786;SDS011;11055;50.870;4.316;2023-09-18T09:59:00;7.80;;;4.15;;
21786;SDS011;11055;50.870;4.316;2023-09-18T10:01:33;6.15;;;3.60;;
21786;SDS011;11055;50.870;4.316;2023-09-18T10:03:59;6.93;;;3.38;;
21786;SDS011;11055;50.870;4.316;2023-09-18T10:06:34;11.15;;;4.20;;
21786;SDS011;11055;50.870;4.316;2023-09-18T10:09:04;8.15;;;4.00;;
21786;SDS011;11055;50.870;4.316;2023-09-18T10:11:33;7.28;;;4.40;;
21786;SDS011;11055;50.870;4.316;2023-09-18T10:14:12;7.40;;;3.95;;
21786;SDS011;11055;50.870;4.316;2023-09-18T10:16:41;6.40;;;3.53;;
21786;SDS011;11055;50.870;4.316;2023-09-18T10:21:57;11.80;;;6.18;;
21786;SDS011;11055;50.870;4.316;2023-09-18T10:24:42;7.30;;;3.38;;
21786;SDS011;11055;50.870;4.316;2023-09-18T10:27:12;5.40;;;3.78;;
21786;SDS011;11055;50.870;4.316;2023-09-18T10:29:39;6.75;;;3.67;;
21786;SDS011;11055;50.870;4.316;2023-09-18T10:32:07;6.82;;;3.90;;
21786;SDS011;11055;50.870;4.316;2023-09-18T10:34:33;7.70;;;4.00;;
21786;SDS011;11055;50.870;4.316;2023-09-18T10:37:01;6.30;;;3.40;;
21786;SDS011;11055;50.870;4.316;2023-09-18T10:39:31;4.38;;;3.55;;
21786;SDS011;11055;50.870;4.316;2023-09-18T10:42:07;7.50;;;3.60;;
21786;SDS011;11055;50.870;4.316;2023-09-18T10:44:40;8.27;;;3.72;;
21786;SDS011;11055;50.870;4.316;2023-09-18T10:47:17;7.32;;;3.95;;
21786;SDS011;11055;50.870;4.316;2023-09-18T10:49:43;7.50;;;3.60;;
21786;SDS011;11055;50.870;4.316;2023-09-18T10:52:12;6.70;;;3.63;;
21786;SDS011;11055;50.870;4.316;2023-09-18T10:54:39;5.63;;;3.42;;
21786;SDS011;11055;50.870;4.316;2023-09-18T10:57:05;4.82;;;3.45;;
21786;SDS011;11055;50.870;4.316;2023-09-18T10:59:31;4.28;;;3.50;;
21786;SDS011;11055;50.870;4.316;2023-09-18T11:02:01;7.40;;;3.60;;
21786;SDS011;11055;50.870;4.316;2023-09-18T11:04:30;3.88;;;3.42;;
21786;SDS011;11055;50.870;4.316;2023-09-18T11:09:25;5.85;;;3.00;;
21786;SDS011;11055;50.870;4.316;2023-09-18T11:12:14;6.13;;;2.90;;
21786;SDS011;11055;50.870;4.316;2023-09-18T11:14:56;4.75;;;2.80;;
21786;SDS011;11055;50.870;4.316;2023-09-18T11:22:47;11.23;;;2.85;;
21786;SDS011;11055;50.870;4.316;2023-09-18T11:25:50;3.03;;;2.40;;
21786;SDS011;11055;50.870;4.316;2023-09-18T11:28:25;5.05;;;2.70;;
21786;SDS011;11055;50.870;4.316;2023-09-18T11:30:54;5.70;;;2.60;;
21786;SDS011;11055;50.870;4.316;2023-09-18T11:36:13;5.60;;;2.78;;
21786;SDS011;11055;50.870;4.316;2023-09-18T11:38:56;4.25;;;2.65;;
21786;SDS011;11055;50.870;4.316;2023-09-18T11:41:27;6.25;;;2.85;;
21786;SDS011;11055;50.870;4.316;2023-09-18T11:46:45;4.68;;;2.72;;
21786;SDS011;11055;50.870;4.316;2023-09-18T11:49:21;8.02;;;2.65;;
21786;SDS011;11055;50.870;4.316;2023-09-18T11:51:50;4.60;;;2.65;;
21786;SDS011;11055;50.870;4.316;2023-09-18T11:54:16;7.47;;;3.22;;
21786;SDS011;11055;50.870;4.316;2023-09-18T11:56:42;8.50;;;3.00;;
21786;SDS011;11055;50.870;4.316;2023-09-18T11:59:09;8.27;;;2.75;;
21786;SDS011;11055;50.870;4.316;2023-09-18T12:01:36;8.63;;;2.83;;
21786;SDS011;11055;50.870;4.316;2023-09-18T12:04:04;5.10;;;2.50;;
21786;SDS011;11055;50.870;4.316;2023-09-18T12:06:34;7.95;;;2.58;;
21786;SDS011;11055;50.870;4.316;2023-09-18T12:09:01;7.07;;;2.97;;
21786;SDS011;11055;50.870;4.316;2023-09-18T12:11:28;2.38;;;2.03;;
21786;SDS011;11055;50.870;4.316;2023-09-18T12:13:55;5.32;;;2.30;;
21786;SDS011;11055;50.870;4.316;2023-09-18T12:16:21;4.63;;;2.30;;
21786;SDS011;11055;50.870;4.316;2023-09-18T12:18:49;4.78;;;2.20;;
21786;SDS011;11055;50.870;4.316;2023-09-18T12:21:16;4.80;;;2.35;;
21786;SDS011;11055;50.870;4.316;2023-09-18T12:23:43;4.60;;;2.35;;
21786;SDS011;11055;50.870;4.316;2023-09-18T12:26:11;3.67;;;2.13;;
21786;SDS011;11055;50.870;4.316;2023-09-18T12:28:38;5.45;;;2.53;;
21786;SDS011;11055;50.870;4.316;2023-09-18T12:31:06;6.75;;;2.10;;
21786;SDS011;11055;50.870;4.316;2023-09-18T12:33:36;3.40;;;2.10;;
21786;SDS011;11055;50.870;4.316;2023-09-18T12:36:03;5.13;;;2.03;;
21786;SDS011;11055;50.870;4.316;2023-09-18T12:38:30;7.18;;;2.58;;
21786;SDS011;11055;50.870;4.316;2023-09-18T12:40:56;6.35;;;2.17;;
21786;SDS011;11055;50.870;4.316;2023-09-18T12:43:25;4.90;;;2.00;;
21786;SDS011;11055;50.870;4.316;2023-09-18T12:45:54;4.07;;;2.47;;
21786;SDS011;11055;50.870;4.316;2023-09-18T12:48:21;6.45;;;2.15;;
21786;SDS011;11055;50.870;4.316;2023-09-18T12:50:51;4.78;;;2.17;;
21786;SDS011;11055;50.870;4.316;2023-09-18T12:53:21;3.83;;;2.00;;
21786;SDS011;11055;50.870;4.316;2023-09-18T12:55:47;3.30;;;2.28;;
21786;SDS011;11055;50.870;4.316;2023-09-18T12:58:18;6.05;;;3.22;;
21786;SDS011;11055;50.870;4.316;2023-09-18T13:00:45;3.92;;;2.03;;
21786;SDS011;11055;50.870;4.316;2023-09-18T13:03:13;3.88;;;2.20;;
21786;SDS011;11055;50.870;4.316;2023-09-18T13:05:39;6.13;;;1.73;;
21786;SDS011;11055;50.870;4.316;2023-09-18T13:08:04;2.42;;;1.80;;
21786;SDS011;11055;50.870;4.316;2023-09-18T13:10:47;2.97;;;1.90;;
21786;SDS011;11055;50.870;4.316;2023-09-18T13:13:18;4.20;;;1.88;;
21786;SDS011;11055;50.870;4.316;2023-09-18T13:15:44;2.95;;;2.25;;
21786;SDS011;11055;50.870;4.316;2023-09-18T13:18:12;6.68;;;2.03;;
21786;SDS011;11055;50.870;4.316;2023-09-18T13:20:39;3.20;;;1.90;;
21786;SDS011;11055;50.870;4.316;2023-09-18T13:23:08;6.03;;;2.20;;
21786;SDS011;11055;50.870;4.316;2023-09-18T13:25:38;2.50;;;1.65;;
21786;SDS011;11055;50.870;4.316;2023-09-18T13:28:08;4.20;;;1.95;;
21786;SDS011;11055;50.870;4.316;2023-09-18T13:30:38;7.28;;;1.73;;
21786;SDS011;11055;50.870;4.316;2023-09-18T13:35:36;4.05;;;2.05;;
21786;SDS011;11055;50.870;4.316;2023-09-18T13:38:06;3.95;;;1.60;;
21786;SDS011;11055;50.870;4.316;2023-09-18T13:40:36;3.33;;;1.70;;
21786;SDS011;11055;50.870;4.316;2023-09-18T13:43:03;3.72;;;1.70;;
21786;SDS011;11055;50.870;4.316;2023-09-18T13:45:30;2.47;;;1.63;;
21786;SDS011;11055;50.870;4.316;2023-09-18T13:47:56;3.40;;;1.90;;
21786;SDS011;11055;50.870;4.316;2023-09-18T13:50:22;3.28;;;1.92;;
21786;SDS011;11055;50.870;4.316;2023-09-18T13:52:48;4.78;;;1.90;;
21786;SDS011;11055;50.870;4.316;2023-09-18T13:55:14;3.13;;;1.65;;
21786;SDS011;11055;50.870;4.316;2023-09-18T13:57:39;3.65;;;2.03;;
21786;SDS011;11055;50.870;4.316;2023-09-18T14:00:06;3.72;;;1.73;;
21786;SDS011;11055;50.870;4.316;2023-09-18T14:02:34;3.78;;;1.98;;
21786;SDS011;11055;50.870;4.316;2023-09-18T14:05:00;6.07;;;1.90;;
21786;SDS011;11055;50.870;4.316;2023-09-18T14:07:26;3.85;;;2.20;;
21786;SDS011;11055;50.870;4.316;2023-09-18T14:09:51;4.05;;;2.38;;
21786;SDS011;11055;50.870;4.316;2023-09-18T14:12:17;3.30;;;2.00;;
21786;SDS011;11055;50.870;4.316;2023-09-18T14:14:43;5.38;;;2.15;;
21786;SDS011;11055;50.870;4.316;2023-09-18T14:17:09;5.60;;;2.03;;
21786;SDS011;11055;50.870;4.316;2023-09-18T14:19:35;4.63;;;1.83;;
21786;SDS011;11055;50.870;4.316;2023-09-18T14:22:05;5.20;;;2.10;;
21786;SDS011;11055;50.870;4.316;2023-09-18T14:24:31;3.83;;;1.60;;
21786;SDS011;11055;50.870;4.316;2023-09-18T14:26:59;5.55;;;1.92;;
21786;SDS011;11055;50.870;4.316;2023-09-18T14:29:25;3.80;;;1.80;;
21786;SDS011;11055;50.870;4.316;2023-09-18T14:31:51;5.80;;;2.08;;
21786;SDS011;11055;50.870;4.316;2023-09-18T14:34:17;5.22;;;2.40;;
21786;SDS011;11055;50.870;4.316;2023-09-18T14:36:43;6.50;;;2.45;;
21786;SDS011;11055;50.870;4.316;2023-09-18T14:39:09;7.05;;;2.50;;
21786;SDS011;11055;50.870;4.316;2023-09-18T14:41:36;5.07;;;2.85;;
21786;SDS011;11055;50.870;4.316;2023-09-18T14:44:05;5.53;;;2.00;;
21786;SDS011;11055;50.870;4.316;2023-09-18T14:46:34;6.07;;;2.30;;
21786;SDS011;11055;50.870;4.316;2023-09-18T14:49:06;3.05;;;2.13;;
21786;SDS011;11055;50.870;4.316;2023-09-18T14:51:33;3.67;;;2.00;;
21786;SDS011;11055;50.870;4.316;2023-09-18T14:53:59;3.47;;;2.17;;
21786;SDS011;11055;50.870;4.316;2023-09-18T14:56:26;3.80;;;2.15;;
21786;SDS011;11055;50.870;4.316;2023-09-18T14:58:52;3.35;;;1.88;;
21786;SDS011;11055;50.870;4.316;2023-09-18T15:01:20;4.88;;;2.28;;
21786;SDS011;11055;50.870;4.316;2023-09-18T15:03:46;4.55;;;2.47;;
21786;SDS011;11055;50.870;4.316;2023-09-18T15:06:14;8.40;;;2.55;;
21786;SDS011;11055;50.870;4.316;2023-09-18T15:08:40;6.18;;;2.50;;
21786;SDS011;11055;50.870;4.316;2023-09-18T15:11:05;2.85;;;2.30;;
21786;SDS011;11055;50.870;4.316;2023-09-18T15:13:31;4.15;;;2.25;;